page 6351 of 1004592 registered users

eBook PostsUsers

  1. 0school1option registered @ 2013-03-08 07:26:10, last login @ 2013-03-08 07:26:10
  2. 0grey6leg registered @ 2013-03-08 07:26:42, last login @ 2013-03-08 07:26:42
  3. 0dancestreet22 registered @ 2013-03-08 07:27:01, last login @ 2013-03-08 07:27:01
  4. 0paintjacket3 registered @ 2013-03-08 07:27:08, last login @ 2013-03-08 07:27:08
  5. 0armrandom9 registered @ 2013-03-08 07:27:52, last login @ 2013-03-08 07:27:52
  6. 0tripenergy9 registered @ 2013-03-08 07:29:25, last login @ 2013-03-08 07:29:25
  7. 0climbbike08 registered @ 2013-03-08 07:31:13, last login @ 2013-03-08 07:31:13
  8. 0LeeannePolacco68 registered @ 2013-03-08 07:31:44, last login @ 2013-03-08 07:31:44
  9. 0betty72shield registered @ 2013-03-08 07:32:36, last login @ 2013-03-08 07:32:36
  10. 0drawersheet2 registered @ 2013-03-08 07:33:04, last login @ 2013-03-08 07:33:04
  11. 0match93closet registered @ 2013-03-08 07:33:09, last login @ 2013-03-08 07:33:09
  12. 0kenyaemery71 registered @ 2013-03-08 07:33:31, last login @ 2013-03-08 07:33:31
  13. 0slipsailor79 registered @ 2013-03-08 07:33:53, last login @ 2013-03-08 07:33:53
  14. 0peanutduck1 registered @ 2013-03-08 07:34:06, last login @ 2013-03-08 07:34:06
  15. 0tooth65wound registered @ 2013-03-08 07:35:20, last login @ 2013-03-08 07:35:20
  16. 0taxliquid1 registered @ 2013-03-08 07:35:30, last login @ 2013-03-08 07:35:30
  17. 0leadbeggar47 registered @ 2013-03-08 07:36:10, last login @ 2013-03-08 07:36:10
  18. 0stemeight4 registered @ 2013-03-08 07:36:41, last login @ 2013-03-08 07:36:41
  19. 0velvetfloor8 registered @ 2013-03-08 07:38:11, last login @ 2013-03-08 07:38:11
  20. 0cobwebsleet84 registered @ 2013-03-08 07:38:37, last login @ 2013-03-08 07:38:37
  21. 0climb88suede registered @ 2013-03-08 07:39:34, last login @ 2013-03-08 07:39:34
  22. 0storeyrg registered @ 2013-03-08 07:40:40, last login @ 2013-03-08 07:40:40
  23. 0spy41bean registered @ 2013-03-08 07:40:51, last login @ 2013-03-08 07:40:51
  24. 0puppyboat1 registered @ 2013-03-08 07:41:32, last login @ 2013-03-08 07:41:32
  25. 0canvasfeet61 registered @ 2013-03-08 07:42:28, last login @ 2013-03-08 07:42:28
  26. 0radin68 registered @ 2013-03-08 07:45:16, last login @ 2013-03-08 07:48:48
  27. 0crybucket2 registered @ 2013-03-08 07:49:12, last login @ 2013-03-08 07:49:12
  28. 0lambswamp74 registered @ 2013-03-08 07:49:15, last login @ 2013-03-08 07:49:15
  29. 0bowlcake61 registered @ 2013-03-08 07:50:04, last login @ 2013-03-08 07:50:04
  30. 0maple82top registered @ 2013-03-08 07:51:45, last login @ 2013-03-08 07:51:45
  31. 0jailmakeup6 registered @ 2013-03-08 07:53:45, last login @ 2013-03-08 07:53:45
  32. 0recessdebtor68 registered @ 2013-03-08 07:54:03, last login @ 2013-03-08 07:54:03
  33. 0dewey56kenn registered @ 2013-03-08 07:54:21, last login @ 2013-03-08 07:54:21
  34. 0colorcomma46 registered @ 2013-03-08 07:56:17, last login @ 2013-03-08 07:56:17
  35. 0suit9period registered @ 2013-03-08 07:58:27, last login @ 2013-03-08 07:58:27
  36. 0oboe99gate registered @ 2013-03-08 07:58:54, last login @ 2013-03-08 07:58:54
  37. 0castbrush6 registered @ 2013-03-08 07:59:53, last login @ 2013-03-08 07:59:53
  38. 0weed6move registered @ 2013-03-08 08:01:12, last login @ 2013-03-08 08:01:12
  39. 0range67museum registered @ 2013-03-08 08:01:38, last login @ 2013-03-08 08:01:38
  40. 0actor35potato registered @ 2013-03-08 08:03:24, last login @ 2013-03-08 08:03:24
  41. 0soda31bath registered @ 2013-03-08 08:04:05, last login @ 2013-03-08 08:04:05
  42. 0asia6copy registered @ 2013-03-08 08:04:14, last login @ 2013-03-08 08:04:14
  43. 0larch87gram registered @ 2013-03-08 08:04:48, last login @ 2013-03-08 08:04:48
  44. 0pocket9cloudy registered @ 2013-03-08 08:07:17, last login @ 2013-03-08 08:07:17
  45. 0nursespy7 registered @ 2013-03-08 08:08:45, last login @ 2013-03-08 08:08:45
  46. 0shirtcobweb7 registered @ 2013-03-08 08:09:51, last login @ 2013-03-08 08:09:51
  47. 0match01basket registered @ 2013-03-08 08:13:40, last login @ 2013-03-08 08:13:40
  48. 0fanghip5 registered @ 2013-03-08 08:15:15, last login @ 2013-03-08 08:15:15
  49. 0templemint3 registered @ 2013-03-08 08:18:31, last login @ 2013-03-08 08:18:31
  50. 0flareclose0 registered @ 2013-03-08 08:20:02, last login @ 2013-03-08 08:20:02
  51. 0tennis83dinner registered @ 2013-03-08 08:20:41, last login @ 2013-03-08 08:47:56
  52. 0backvoice1 registered @ 2013-03-08 08:20:50, last login @ 2013-03-08 08:20:50
  53. 0ringnode0 registered @ 2013-03-08 08:21:16, last login @ 2013-03-08 08:21:16
  54. 0jumbo3woolen registered @ 2013-03-08 08:22:28, last login @ 2013-03-08 08:22:28
  55. 0sunilsingh registered @ 2013-03-08 08:23:17, last login @ 2013-03-08 08:23:17
  56. 0sled6male registered @ 2013-03-08 08:23:27, last login @ 2013-03-08 08:23:27
  57. 0polishwing1 registered @ 2013-03-08 08:25:09, last login @ 2013-03-08 08:25:09
  58. 0sphere86title registered @ 2013-03-08 08:26:32, last login @ 2013-03-08 08:26:32
  59. 0quiltchange8 registered @ 2013-03-08 08:27:10, last login @ 2013-03-08 08:27:10
  60. 0pestmole24 registered @ 2013-03-08 08:27:23, last login @ 2013-03-08 08:27:23
  61. 0skillclub56 registered @ 2013-03-08 08:30:00, last login @ 2013-03-08 08:30:00
  62. 0bun32mom registered @ 2013-03-08 08:30:03, last login @ 2013-03-08 08:30:03
  63. 0orchidsnail98 registered @ 2013-03-08 08:31:08, last login @ 2013-03-08 08:31:08
  64. 0skatephone9 registered @ 2013-03-08 08:33:04, last login @ 2013-03-08 08:33:04
  65. 0brush0theory registered @ 2013-03-08 08:33:38, last login @ 2013-03-08 08:33:38
  66. 0owl24patio registered @ 2013-03-08 08:34:49, last login @ 2013-03-08 08:34:49
  67. 0laugh5room registered @ 2013-03-08 08:34:52, last login @ 2013-03-08 08:34:52
  68. 0sing48cocoa registered @ 2013-03-08 08:34:55, last login @ 2013-03-08 08:34:55
  69. 0input81coil registered @ 2013-03-08 08:37:39, last login @ 2013-03-08 08:37:39
  70. 0look81ronald registered @ 2013-03-08 08:37:50, last login @ 2013-03-08 08:37:50
  71. 0colony9dust registered @ 2013-03-08 08:39:23, last login @ 2013-03-08 08:39:23
  72. 0soypacket8 registered @ 2013-03-08 08:41:21, last login @ 2013-03-08 08:41:21
  73. 0club0milk registered @ 2013-03-08 08:42:14, last login @ 2013-03-08 08:42:14
  74. 0honeysmash2 registered @ 2013-03-08 08:42:43, last login @ 2013-03-08 08:42:43
  75. 0barber4colon registered @ 2013-03-08 08:46:21, last login @ 2013-03-08 08:46:21
  76. 0suitfemale02 registered @ 2013-03-08 08:47:24, last login @ 2013-03-08 08:47:24
  77. 0andreaferrari registered @ 2013-03-08 08:47:35, last login @ 2013-03-08 08:47:35
  78. 0olivia25512 registered @ 2013-03-08 08:48:00, last login @ 2013-03-08 08:48:00
  79. 0bankhair8 registered @ 2013-03-08 08:49:32, last login @ 2013-03-08 08:49:32
  80. 0swiss90file registered @ 2013-03-08 08:50:01, last login @ 2013-03-08 08:50:01
  81. 0grey29party registered @ 2013-03-08 08:50:37, last login @ 2013-03-08 08:50:37
  82. 0routervalley9 registered @ 2013-03-08 08:51:50, last login @ 2013-03-08 08:51:50
  83. 0jumbo1find registered @ 2013-03-08 08:52:18, last login @ 2013-03-08 08:52:18
  84. 0brace97octave registered @ 2013-03-08 08:52:20, last login @ 2013-03-08 08:52:20
  85. 0porter81litter registered @ 2013-03-08 08:53:09, last login @ 2013-03-08 08:53:09
  86. 0paul29lamb registered @ 2013-03-08 08:53:10, last login @ 2013-03-08 08:53:10
  87. 0nutwall4 registered @ 2013-03-08 08:53:53, last login @ 2013-03-08 08:53:53
  88. 0brake0tailor registered @ 2013-03-08 08:53:57, last login @ 2013-03-08 08:53:57
  89. 0JimmieEriksen registered @ 2013-03-08 08:54:17, last login @ 2013-03-08 08:54:17
  90. 0bobni registered @ 2013-03-08 08:57:25, last login @ 2013-03-08 08:57:25
  91. 0incomeperch8 registered @ 2013-03-08 08:58:50, last login @ 2013-03-08 08:58:50
  92. 0dancedonald2 registered @ 2013-03-08 09:00:28, last login @ 2013-03-08 09:00:28
  93. 0YesseniaFloe812 registered @ 2013-03-08 09:00:49, last login @ 2013-03-08 09:00:49
  94. 0flare45root registered @ 2013-03-08 09:04:59, last login @ 2013-03-08 09:04:59
  95. 0thronecobweb6 registered @ 2013-03-08 09:05:09, last login @ 2013-03-08 09:05:09
  96. 0look9ronald registered @ 2013-03-08 09:05:59, last login @ 2013-03-08 09:05:59
  97. 0dock8modem registered @ 2013-03-08 09:06:17, last login @ 2013-03-08 09:06:17
  98. 0drawer27beech registered @ 2013-03-08 09:06:46, last login @ 2013-03-08 09:06:46
  99. 0lentilcrow84 registered @ 2013-03-08 09:07:00, last login @ 2013-03-08 09:07:00
  100. 0trowelthing78 registered @ 2013-03-08 09:08:44, last login @ 2013-03-08 09:08:44
  101. 0monkey06wood registered @ 2013-03-08 09:08:54, last login @ 2013-03-08 09:08:54

More...

[6361] [6360] [6359] [6358] [6357] [6356] [6355] [6354] [6353] [6352] [6351] [6350] [6349] [6348] [6347] [6346] [6345] [6344] [6343] [6342] ...[1]
Back to Top